Svitzer Leixoes — CSXW6 — position and weather

sailwx.info

Track history (hours):
 
Tides and Currents Weather Stations Pressure Air Temp Water Temp Dewpoint Dewpoint Depression Visibility Wind Speed Wind Dir Waves Ship Positions

Svitzer Leixoes

Last reported at 2017-Jun-27 02:00 UTC. Time now 2017-Jun-27 02:06 UTC.
Position N 38°42' W 009°07'.

Length 29 m; draft 4.3 m.

Type: Tug. MMSI: 263622000.

Date/timePositionNaut miles runAvg speedWind from/ knotsBaromVisibWave heightAir tempDewpointWater temp
2017-Jun-27 02:00N 38°42' W 009°07'2 4.5
2017-Jun-27 01:29N 38°42' W 009°10'0 0.0
2017-Jun-27 01:00N 38°42' W 009°10'0 0.0
2017-Jun-27 00:29N 38°42' W 009°10'0 0.0
2017-Jun-27 00:00N 38°42' W 009°10'0 0.0
2017-Jun-26 23:28N 38°42' W 009°10'0 0.0
2017-Jun-26 23:00N 38°42' W 009°10'0 0.0
2017-Jun-26 22:27N 38°42' W 009°10'0 0.0
2017-Jun-26 22:00N 38°42' W 009°10'0 0.0
2017-Jun-26 21:30N 38°42' W 009°10'0 0.0
2017-Jun-26 21:00N 38°42' W 009°10'0 0.0
2017-Jun-26 20:29N 38°42' W 009°10'0 0.0
2017-Jun-26 20:00N 38°42' W 009°10'0 0.4
2017-Jun-26 19:30N 38°42' W 009°10'0 0.5
2017-Jun-26 19:00N 38°42' W 009°10'0 0.6
2017-Jun-26 18:30N 38°42' W 009°10'0 0.0
2017-Jun-26 17:58N 38°42' W 009°10'0 0.0
2017-Jun-26 17:29N 38°42' W 009°10'0 0.0
2017-Jun-26 16:58N 38°42' W 009°10'0 0.0
2017-Jun-26 16:30N 38°42' W 009°10'0 0.1
2017-Jun-26 16:00N 38°42' W 009°10'0 0.1
2017-Jun-26 15:30N 38°42' W 009°10'0 0.0
2017-Jun-26 15:00N 38°42' W 009°10'0 0.0
2017-Jun-26 14:30N 38°42' W 009°10'0 0.0
2017-Jun-26 13:29N 38°42' W 009°10'2 3.8
2017-Jun-26 13:00N 38°43' W 009°07'1 2.3
2017-Jun-26 12:29N 38°43' W 009°06'3 5.7
2017-Jun-26 12:00N 38°42' W 009°09'0 0.3
2017-Jun-26 11:30N 38°42' W 009°10'0 0.0
2017-Jun-26 10:59N 38°42' W 009°10'0 0.0
2017-Jun-26 10:30N 38°42' W 009°10'0 0.0
2017-Jun-26 10:00N 38°42' W 009°10'0 0.0
2017-Jun-26 09:27N 38°42' W 009°10'0 0.0
2017-Jun-26 09:00N 38°42' W 009°10'0 0.0
2017-Jun-26 08:29N 38°42' W 009°10'0 0.0
2017-Jun-26 07:58N 38°42' W 009°10'0 0.0
2017-Jun-26 07:30N 38°42' W 009°10'0 0.0
2017-Jun-26 07:00N 38°42' W 009°10'0 0.0
2017-Jun-26 06:30N 38°42' W 009°10'0 0.0
2017-Jun-26 06:00N 38°42' W 009°10'0 0.0
2017-Jun-26 05:28N 38°42' W 009°10'0 0.0
2017-Jun-26 05:00N 38°42' W 009°10'0 0.0
2017-Jun-26 04:30N 38°42' W 009°10'0 0.0
2017-Jun-26 04:00N 38°42' W 009°10'0 0.0
2017-Jun-26 03:30N 38°42' W 009°10'0 0.0
2017-Jun-26 03:00N 38°42' W 009°10'0 0.0
2017-Jun-26 02:30N 38°42' W 009°10'0 0.0
2017-Jun-26 01:59N 38°42' W 009°10'0 0.0
2017-Jun-26 01:30N 38°42' W 009°10'0 0.0
2017-Jun-26 01:00N 38°42' W 009°10'0 0.0
2017-Jun-26 00:30N 38°42' W 009°10'0 0.0
2017-Jun-26 00:00N 38°42' W 009°10'0 0.0
2017-Jun-25 23:30N 38°42' W 009°10'0 0.0
2017-Jun-25 23:00N 38°42' W 009°10'0 0.0
2017-Jun-25 22:30N 38°42' W 009°10'0 0.0
2017-Jun-25 22:00N 38°42' W 009°10'0 0.0
2017-Jun-25 21:30N 38°42' W 009°10'0 0.0
2017-Jun-25 21:00N 38°42' W 009°10'0 0.0
2017-Jun-25 20:30N 38°42' W 009°10'0 0.0
2017-Jun-25 20:00N 38°42' W 009°10'1 1.2
2017-Jun-25 19:30N 38°42' W 009°10'0 0.7
2017-Jun-25 19:00N 38°42' W 009°11'0 0.8
2017-Jun-25 18:30N 38°42' W 009°10'1 1.2
2017-Jun-25 17:58N 38°42' W 009°10'0 0.0
2017-Jun-25 17:30N 38°42' W 009°10'0 0.0
2017-Jun-25 17:00N 38°42' W 009°10'0 0.0
2017-Jun-25 16:30N 38°42' W 009°10'0 0.0
2017-Jun-25 16:00N 38°42' W 009°10'0 0.0
2017-Jun-25 15:30N 38°42' W 009°10'0 0.1
2017-Jun-25 15:00N 38°42' W 009°10'0 0.0
2017-Jun-25 14:00N 38°42' W 009°10'0 0.0
2017-Jun-25 13:30N 38°42' W 009°10'0 0.0
2017-Jun-25 12:58N 38°42' W 009°10'0 0.0
2017-Jun-25 12:29N 38°42' W 009°10'0 0.0
2017-Jun-25 12:00N 38°42' W 009°10'0 0.0
2017-Jun-25 11:30N 38°42' W 009°10'3 5.4
2017-Jun-25 10:59N 38°44' W 009°06'2 3.7
2017-Jun-25 10:30N 38°42' W 009°08'1 2.2
2017-Jun-25 09:57N 38°42' W 009°09'0 0.7
2017-Jun-25 09:30N 38°42' W 009°10'0 0.0
2017-Jun-25 09:00N 38°42' W 009°10'0 0.0
2017-Jun-25 08:30N 38°42' W 009°10'0 0.0
2017-Jun-25 08:00N 38°42' W 009°10'0 0.0
2017-Jun-25 07:30N 38°42' W 009°10'0 0.0
2017-Jun-25 07:00N 38°42' W 009°10'0 0.0
2017-Jun-25 06:30N 38°42' W 009°10'0 0.0
2017-Jun-25 05:59N 38°42' W 009°10'0 0.8
2017-Jun-25 05:30N 38°42' W 009°10'0 0.6
2017-Jun-25 05:00N 38°42' W 009°10'0 0.3
2017-Jun-25 04:27N 38°42' W 009°10'0 0.0
2017-Jun-25 04:00N 38°42' W 009°10'0 0.0
2017-Jun-25 03:30N 38°42' W 009°10'0 0.0
2017-Jun-25 02:54N 38°42' W 009°10'0 0.0
2017-Jun-25 02:30N 38°42' W 009°10'0 0.0
2017-Jun-25 02:00N 38°42' W 009°10'0 0.0
2017-Jun-25 01:30N 38°42' W 009°10'0 0.0
2017-Jun-25 00:59N 38°42' W 009°10'0 0.0
2017-Jun-25 00:30N 38°42' W 009°10'0 0.0
2017-Jun-24 23:59N 38°42' W 009°10'0 0.0
2017-Jun-24 23:28N 38°42' W 009°10'0 0.0
2017-Jun-24 23:00N 38°42' W 009°10'0 0.0
2017-Jun-24 22:30N 38°42' W 009°10'0 0.0
2017-Jun-24 22:00N 38°42' W 009°10'0 0.0
2017-Jun-24 21:30N 38°42' W 009°10'0 0.0
2017-Jun-24 21:00N 38°42' W 009°10'0 0.0
2017-Jun-24 20:30N 38°42' W 009°10'0 0.0
2017-Jun-24 19:59N 38°42' W 009°10'0 0.0
2017-Jun-24 19:29N 38°42' W 009°10'0 0.0
2017-Jun-24 19:00N 38°42' W 009°10'0 0.0
2017-Jun-24 18:30N 38°42' W 009°10'0 0.0
2017-Jun-24 18:00N 38°42' W 009°10'0 0.0
2017-Jun-24 17:25N 38°42' W 009°10'0 0.0
2017-Jun-24 17:00N 38°42' W 009°10'0 0.0
2017-Jun-24 16:29N 38°42' W 009°10'0 0.0
2017-Jun-24 16:00N 38°42' W 009°10'0 0.0
2017-Jun-24 15:30N 38°42' W 009°10'0 0.5
2017-Jun-24 14:59N 38°42' W 009°10'1 0.6
2017-Jun-24 14:00N 38°42' W 009°10'1 1.7
2017-Jun-24 13:30N 38°42' W 009°10'0 0.0
2017-Jun-24 12:57N 38°42' W 009°10'0 0.0
2017-Jun-24 12:30N 38°42' W 009°10'0 0.0
2017-Jun-24 12:00N 38°42' W 009°10'0 0.0
2017-Jun-24 11:30N 38°42' W 009°10'0 0.0
2017-Jun-24 11:00N 38°42' W 009°10'0 0.0
2017-Jun-24 10:28N 38°42' W 009°10'0 1.0
2017-Jun-24 10:00N 38°42' W 009°10'0 0.9
2017-Jun-24 09:29N 38°42' W 009°10'0 0.0
2017-Jun-24 08:57N 38°42' W 009°10'0 0.0
2017-Jun-24 08:24N 38°42' W 009°10'0 0.0
2017-Jun-24 07:59N 38°42' W 009°10'0 0.0
2017-Jun-24 07:30N 38°42' W 009°10'0 0.0
2017-Jun-24 06:59N 38°42' W 009°10'0 0.0
2017-Jun-24 06:30N 38°42' W 009°10'0 0.0
2017-Jun-24 05:56N 38°42' W 009°10'0 0.0
2017-Jun-24 05:30N 38°42' W 009°10'0 0.0
2017-Jun-24 05:00N 38°42' W 009°10'0 0.0
2017-Jun-24 04:29N 38°42' W 009°10'0 0.0
2017-Jun-24 04:00N 38°42' W 009°10'0 0.0
2017-Jun-24 03:30N 38°42' W 009°10'0 0.0
2017-Jun-24 02:59N 38°42' W 009°10'0 0.0
2017-Jun-24 02:30N 38°42' W 009°10'0 0.0
2017-Jun-24 01:59N 38°42' W 009°10'0 0.0
2017-Jun-24 01:29N 38°42' W 009°10'0 0.0
2017-Jun-24 00:57N 38°42' W 009°10'0 0.0
2017-Jun-24 00:30N 38°42' W 009°10'0 0.0
2017-Jun-24 00:00N 38°42' W 009°10'0 0.0
2017-Jun-23 23:30N 38°42' W 009°10'0 0.0
2017-Jun-23 23:00N 38°42' W 009°10'0 0.0
2017-Jun-23 22:30N 38°42' W 009°10'0 0.0
2017-Jun-23 21:59N 38°42' W 009°10'0 0.0
2017-Jun-23 21:30N 38°42' W 009°10'0 0.0
2017-Jun-23 21:00N 38°42' W 009°10'0 0.0
2017-Jun-23 20:29N 38°42' W 009°10'0 0.0
2017-Jun-23 20:00N 38°42' W 009°10'0 0.0
2017-Jun-23 19:30N 38°42' W 009°10'0 0.0
2017-Jun-23 19:00N 38°42' W 009°10'1 2.8
2017-Jun-23 18:30N 38°41' W 009°11'1 1.5
2017-Jun-23 18:00N 38°42' W 009°10'0 0.1
2017-Jun-23 17:30N 38°42' W 009°10'1 1.2
2017-Jun-23 17:00N 38°42' W 009°10'2 3.8
2017-Jun-23 16:30N 38°40' W 009°09'0 0.1
2017-Jun-23 16:00N 38°40' W 009°09'0 0.1
2017-Jun-23 15:30N 38°40' W 009°09'0 0.1
2017-Jun-23 15:00N 38°40' W 009°09'1 0.7
2017-Jun-23 14:00N 38°41' W 009°08'0 0.2
2017-Jun-23 13:30N 38°41' W 009°08'2 3.3
2017-Jun-23 13:00N 38°42' W 009°09'0 0.5
2017-Jun-23 12:30N 38°42' W 009°10'0 0.0
2017-Jun-23 12:00N 38°42' W 009°10'0 0.0
2017-Jun-23 11:30N 38°42' W 009°10'0 0.0
2017-Jun-23 10:59N 38°42' W 009°10'0 0.0
2017-Jun-23 10:29N 38°42' W 009°10'0 0.0
2017-Jun-23 10:00N 38°42' W 009°10'0 0.0
2017-Jun-23 09:30N 38°42' W 009°10'0 0.4
2017-Jun-23 09:00N 38°42' W 009°10'0 0.4
2017-Jun-23 08:30N 38°42' W 009°10'0 0.0
2017-Jun-23 07:59N 38°42' W 009°10'0 0.0
2017-Jun-23 07:27N 38°42' W 009°10'0 0.0
2017-Jun-23 07:00N 38°42' W 009°10'0 0.0
2017-Jun-23 06:29N 38°42' W 009°10'0 0.0
2017-Jun-23 06:00N 38°42' W 009°10'1 1.0
2017-Jun-23 05:27N 38°42' W 009°10'1 2.9
2017-Jun-23 05:00N 38°41' W 009°12'2 3.8
2017-Jun-23 04:30N 38°42' W 009°10'0 0.0
2017-Jun-23 04:00N 38°42' W 009°10'0 0.0
2017-Jun-23 03:30N 38°42' W 009°10'0 0.0
2017-Jun-23 02:59N 38°42' W 009°10'0 0.0
2017-Jun-23 02:29N 38°42' W 009°10'0 0.0
2017-Jun-23 01:58N 38°42' W 009°10'0 0.0
2017-Jun-23 01:30N 38°42' W 009°10'0 0.0
2017-Jun-23 01:00N 38°42' W 009°10'0 0.0
2017-Jun-23 00:30N 38°42' W 009°10'0 0.0
2017-Jun-23 00:00N 38°42' W 009°10'0 0.0
2017-Jun-22 23:29N 38°42' W 009°10'0 0.0
2017-Jun-22 22:59N 38°42' W 009°10'0 0.0
2017-Jun-22 22:29N 38°42' W 009°10'0 0.0
2017-Jun-22 22:00N 38°42' W 009°10'0 0.0
2017-Jun-22 21:26N 38°42' W 009°10'0 0.0
2017-Jun-22 21:00N 38°42' W 009°10'0 0.0
2017-Jun-22 20:30N 38°42' W 009°10'0 0.0
2017-Jun-22 20:00N 38°42' W 009°10'0 0.0
2017-Jun-22 19:30N 38°42' W 009°10'0 0.0
2017-Jun-22 19:00N 38°42' W 009°10'0 0.0
2017-Jun-22 18:29N 38°42' W 009°10'0 0.0
2017-Jun-22 18:00N 38°42' W 009°10'0 0.0
2017-Jun-22 17:29N 38°42' W 009°10'0 0.0
2017-Jun-22 17:00N 38°42' W 009°10'0 0.0
2017-Jun-22 16:30N 38°42' W 009°10'0 0.0
2017-Jun-22 15:59N 38°42' W 009°10'0 0.0
2017-Jun-22 15:26N 38°42' W 009°10'0 0.0
2017-Jun-22 14:59N 38°42' W 009°10'0 0.4
2017-Jun-22 14:00N 38°42' W 009°10'0 0.7
2017-Jun-22 13:29N 38°42' W 009°10'0 0.0
2017-Jun-22 13:00N 38°42' W 009°10'0 0.0
2017-Jun-22 12:30N 38°42' W 009°10'0 0.0
2017-Jun-22 11:58N 38°42' W 009°10'0 0.0
2017-Jun-22 11:30N 38°42' W 009°10'0 0.0
2017-Jun-22 10:59N 38°42' W 009°10'0 0.0
2017-Jun-22 10:30N 38°42' W 009°10'0 0.0
2017-Jun-22 10:00N 38°42' W 009°10'3 5.5
2017-Jun-22 09:30N 38°41' W 009°07'2 4.5
2017-Jun-22 09:00N 38°41' W 009°04'4 7.6
2017-Jun-22 08:30N 38°41' W 009°08'1 2.6
2017-Jun-22 08:00N 38°41' W 009°10'1 1.5
2017-Jun-22 07:30N 38°42' W 009°09'1 1.1
2017-Jun-22 07:00N 38°42' W 009°10'3 5.1
2017-Jun-22 06:27N 38°41' W 009°13'1 2.2
2017-Jun-22 06:01N 38°41' W 009°14'4 7.8
2017-Jun-22 05:30N 38°42' W 009°09'0 0.4
2017-Jun-22 05:00N 38°42' W 009°10'0 0.0
2017-Jun-22 04:27N 38°42' W 009°10'0 0.0
2017-Jun-22 03:58N 38°42' W 009°10'0 0.0
2017-Jun-22 03:30N 38°42' W 009°10'0 0.0
2017-Jun-22 02:58N 38°42' W 009°10'0 0.0
2017-Jun-22 02:30N 38°42' W 009°10'0 0.0
2017-Jun-22 01:58N 38°42' W 009°10'0 0.0
2017-Jun-22 01:30N 38°42' W 009°10'0 0.0
2017-Jun-22 01:00N 38°42' W 009°10'0 0.0
2017-Jun-22 00:29N 38°42' W 009°10'2 3.3
2017-Jun-22 00:00N 38°41' W 009°11'0 0.1
2017-Jun-21 23:30N 38°41' W 009°11'0 0.7
2017-Jun-21 23:00N 38°41' W 009°11'1 2.7
2017-Jun-21 22:30N 38°42' W 009°10'0 0.0
2017-Jun-21 22:00N 38°42' W 009°10'0 0.0
2017-Jun-21 21:27N 38°42' W 009°10'0 0.0
2017-Jun-21 21:00N 38°42' W 009°10'0 0.0
2017-Jun-21 20:29N 38°42' W 009°10'0 0.0
2017-Jun-21 20:00N 38°42' W 009°10'0 0.0
2017-Jun-21 19:30N 38°42' W 009°10'1 1.3
2017-Jun-21 19:00N 38°42' W 009°09'2 3.7
2017-Jun-21 18:21N 38°43' W 009°06'2 4.8
2017-Jun-21 18:00N 38°42' W 009°08'1 2.6
2017-Jun-21 17:29N 38°42' W 009°10'0 0.0
2017-Jun-21 16:58N 38°42' W 009°10'0 0.0
2017-Jun-21 16:28N 38°42' W 009°10'0 0.0
2017-Jun-21 16:00N 38°42' W 009°10'0 0.0
2017-Jun-21 15:29N 38°42' W 009°10'0 0.0
2017-Jun-21 14:53N 38°42' W 009°10'1 1.0
2017-Jun-21 14:00N 38°42' W 009°10'1 1.7
2017-Jun-21 13:30N 38°42' W 009°10'0 0.0
2017-Jun-21 12:59N 38°42' W 009°10'0 0.0
2017-Jun-21 12:29N 38°42' W 009°10'0 0.0
2017-Jun-21 12:00N 38°42' W 009°10'0 0.0
2017-Jun-21 11:30N 38°42' W 009°10'0 0.0
2017-Jun-21 10:58N 38°42' W 009°10'0 0.0
2017-Jun-21 10:29N 38°42' W 009°10'0 0.0
2017-Jun-21 10:00N 38°42' W 009°10'0 0.0
2017-Jun-21 09:30N 38°42' W 009°10'0 0.0
2017-Jun-21 08:53N 38°42' W 009°10'0 0.4
2017-Jun-21 08:29N 38°42' W 009°09'4 7.5
2017-Jun-21 08:00N 38°41' W 009°14'2 4.4
2017-Jun-21 07:30N 38°42' W 009°11'1 2.3
2017-Jun-21 06:55N 38°42' W 009°10'0 0.0
2017-Jun-21 06:30N 38°42' W 009°10'0 0.0
2017-Jun-21 05:59N 38°42' W 009°10'0 0.0
2017-Jun-21 05:30N 38°42' W 009°10'0 0.0
2017-Jun-21 04:59N 38°42' W 009°10'0 0.0
2017-Jun-21 04:30N 38°42' W 009°10'0 0.9
2017-Jun-21 03:59N 38°42' W 009°10'0 0.8
2017-Jun-21 03:30N 38°42' W 009°10'0 0.7
2017-Jun-21 02:58N 38°42' W 009°10'0 0.0
2017-Jun-21 02:29N 38°42' W 009°10'0 0.0
2017-Jun-21 02:00N 38°42' W 009°10'0 0.0
2017-Jun-21 01:29N 38°42' W 009°10'0 0.0
2017-Jun-21 01:00N 38°42' W 009°10'0 0.0
2017-Jun-21 00:30N 38°42' W 009°10'0 0.0
2017-Jun-21 00:00N 38°42' W 009°10'0 0.0
2017-Jun-20 23:28N 38°42' W 009°10'2 5.3
2017-Jun-20 23:00N 38°43' W 009°07'2 3.8
2017-Jun-20 22:30N 38°42' W 009°09'1 1.2
2017-Jun-20 21:59N 38°42' W 009°10'0 0.0
2017-Jun-20 21:27N 38°42' W 009°10'0 0.0
2017-Jun-20 20:59N 38°42' W 009°10'0 0.0
2017-Jun-20 20:29N 38°42' W 009°10'0 0.0
2017-Jun-20 19:59N 38°42' W 009°10'0 0.0
2017-Jun-20 19:30N 38°42' W 009°10'0 0.0
2017-Jun-20 19:00N 38°42' W 009°10'0 0.0
2017-Jun-20 18:30N 38°42' W 009°10'2 3.1
2017-Jun-20 18:00N 38°42' W 009°08'2 2.8
2017-Jun-20 17:27N 38°42' W 009°10'0 0.0
2017-Jun-20 17:00N 38°42' W 009°10'0 0.0
2017-Jun-20 16:28N 38°42' W 009°10'0 0.0
2017-Jun-20 16:00N 38°42' W 009°10'0 0.0
2017-Jun-20 15:30N 38°42' W 009°10'0 0.0
2017-Jun-20 14:59N 38°42' W 009°10'0 0.0
2017-Jun-20 14:00N 38°42' W 009°10'0 0.0
2017-Jun-20 13:30N 38°42' W 009°10'0 0.0
2017-Jun-20 13:00N 38°42' W 009°10'0 0.0
2017-Jun-20 12:27N 38°42' W 009°10'0 0.0
2017-Jun-20 12:00N 38°42' W 009°10'2 4.9
2017-Jun-20 11:30N 38°41' W 009°12'1 2.7
2017-Jun-20 11:00N 38°41' W 009°14'2 4.6
2017-Jun-20 10:29N 38°41' W 009°11'2 4.1
2017-Jun-20 10:00N 38°40' W 009°09'0 0.1
2017-Jun-20 09:30N 38°40' W 009°09'1 1.4
2017-Jun-20 09:00N 38°41' W 009°08'2 3.6
2017-Jun-20 08:30N 38°42' W 009°10'0 0.0
2017-Jun-20 08:00N 38°42' W 009°10'0 0.0
2017-Jun-20 07:30N 38°42' W 009°10'0 0.0
2017-Jun-20 07:00N 38°42' W 009°10'0 0.5
2017-Jun-20 06:30N 38°42' W 009°10'0 1.0
2017-Jun-20 06:00N 38°42' W 009°09'0 0.9
2017-Jun-20 05:30N 38°42' W 009°10'0 0.0
2017-Jun-20 05:00N 38°42' W 009°10'0 0.0
2017-Jun-20 04:30N 38°42' W 009°10'0 0.0
2017-Jun-20 04:00N 38°42' W 009°10'0 0.0
2017-Jun-20 03:30N 38°42' W 009°10'0 0.0
2017-Jun-20 03:00N 38°42' W 009°10'0 0.0
2017-Jun-20 02:30N 38°42' W 009°10'0 0.0
2017-Jun-20 02:00N 38°42' W 009°10'0 0.0
2017-Jun-20 01:30N 38°42' W 009°10'0 0.0
2017-Jun-20 01:00N 38°42' W 009°10'0 0.0
2017-Jun-20 00:30N 38°42' W 009°10'0 0.0
2017-Jun-20 00:00N 38°42' W 009°10'0 0.0
2017-Jun-19 23:30N 38°42' W 009°10'0 0.0
2017-Jun-19 23:00N 38°42' W 009°10'0 0.0
2017-Jun-19 22:30N 38°42' W 009°10'0 0.0
2017-Jun-19 22:00N 38°42' W 009°10'0 0.0
2017-Jun-19 21:30N 38°42' W 009°10'0 0.9
2017-Jun-19 21:00N 38°42' W 009°10'0 0.9
2017-Jun-19 20:30N 38°42' W 009°10'0 0.0
2017-Jun-19 20:00N 38°42' W 009°10'0 0.0
2017-Jun-19 19:30N 38°42' W 009°10'0 0.0
2017-Jun-19 19:00N 38°42' W 009°10'0 0.0
2017-Jun-19 18:30N 38°42' W 009°10'0 0.0
2017-Jun-19 17:59N 38°42' W 009°10'0 0.9
2017-Jun-19 17:30N 38°42' W 009°10'1 1.5
2017-Jun-19 17:00N 38°42' W 009°11'1 2.3
2017-Jun-19 16:30N 38°42' W 009°10'0 0.0
2017-Jun-19 16:00N 38°42' W 009°10'0 0.0
2017-Jun-19 15:29N 38°42' W 009°10'0 0.0
2017-Jun-19 15:00N 38°42' W 009°10'0 0.0
2017-Jun-19 13:58N 38°42' W 009°10'0 0.0
2017-Jun-19 13:29N 38°42' W 009°10'0 0.0
2017-Jun-19 13:00N 38°42' W 009°10'0 0.0
2017-Jun-19 12:28N 38°42' W 009°10'0 0.0
2017-Jun-19 12:00N 38°42' W 009°10'0 0.0
2017-Jun-19 11:30N 38°42' W 009°10'3 5.6
2017-Jun-19 10:54N 38°44' W 009°06'0 0.3
2017-Jun-19 10:29N 38°44' W 009°06'1 3.0
2017-Jun-19 10:00N 38°43' W 009°07'2 4.2
2017-Jun-19 09:30N 38°42' W 009°10'0 0.0
2017-Jun-19 09:00N 38°42' W 009°10'0 0.0
2017-Jun-19 08:30N 38°42' W 009°10'0 0.0
2017-Jun-19 08:00N 38°42' W 009°10'0 0.0
2017-Jun-19 07:30N 38°42' W 009°10'0 0.0
2017-Jun-19 07:00N 38°42' W 009°10'0 0.0
2017-Jun-19 06:30N 38°42' W 009°10'0 0.8
2017-Jun-19 06:00N 38°42' W 009°10'1 1.0
2017-Jun-19 05:29N 38°41' W 009°10'1 1.2
2017-Jun-19 05:00N 38°42' W 009°11'1 1.8
2017-Jun-19 04:30N 38°42' W 009°10'0 0.0
2017-Jun-19 04:00N 38°42' W 009°10'0 0.0
2017-Jun-19 03:30N 38°42' W 009°10'0 0.0
2017-Jun-19 03:00N 38°42' W 009°10'0 0.0
2017-Jun-19 02:30N 38°42' W 009°10'0 0.0
2017-Jun-19 02:00N 38°42' W 009°10'0 0.0
2017-Jun-19 01:30N 38°42' W 009°10'0 0.0
2017-Jun-19 01:00N 38°42' W 009°10'0 0.0
2017-Jun-19 00:30N 38°42' W 009°10'0 0.0
2017-Jun-19 00:00N 38°42' W 009°10'0 0.0
2017-Jun-18 23:30N 38°42' W 009°10'0 0.0
2017-Jun-18 23:00N 38°42' W 009°10'0 0.0
2017-Jun-18 22:30N 38°42' W 009°10'0 0.0
2017-Jun-18 22:00N 38°42' W 009°10'0 0.0
2017-Jun-18 21:30N 38°42' W 009°10'0 0.0
2017-Jun-18 21:00N 38°42' W 009°10'0 0.0
2017-Jun-18 20:30N 38°42' W 009°10'0 0.0
2017-Jun-18 20:00N 38°42' W 009°10'0 0.0
2017-Jun-18 19:29N 38°42' W 009°10'0 0.0
2017-Jun-18 19:00N 38°42' W 009°10'0 0.0
2017-Jun-18 18:30N 38°42' W 009°10'0 0.0
2017-Jun-18 18:00N 38°42' W 009°10'0 0.0
2017-Jun-18 17:30N 38°42' W 009°10'0 0.0
2017-Jun-18 17:00N 38°42' W 009°10'1 1.1
2017-Jun-18 16:31N 38°42' W 009°10'0 0.4
2017-Jun-18 16:00N 38°42' W 009°10'1 1.0
2017-Jun-18 15:30N 38°42' W 009°10'0 0.0
2017-Jun-18 15:00N 38°42' W 009°10'0 0.0
2017-Jun-18 14:00N 38°42' W 009°10'0 0.0
2017-Jun-18 13:30N 38°42' W 009°10'0 0.0
2017-Jun-18 13:00N 38°42' W 009°10'0 0.0
2017-Jun-18 12:30N 38°42' W 009°10'0 0.0
2017-Jun-18 12:00N 38°42' W 009°10'0 0.0
2017-Jun-18 11:30N 38°42' W 009°10'0 0.0
2017-Jun-18 11:00N 38°42' W 009°10'0 0.0
2017-Jun-18 10:30N 38°42' W 009°10'0 0.0
2017-Jun-18 10:00N 38°42' W 009°10'0 0.0
2017-Jun-18 09:30N 38°42' W 009°10'0 0.0
2017-Jun-18 09:00N 38°42' W 009°10'1 1.8
2017-Jun-18 08:30N 38°42' W 009°09'1 2.6
2017-Jun-18 08:00N 38°40' W 009°09'1 1.8
2017-Jun-18 07:31N 38°41' W 009°08'2 3.1
2017-Jun-18 07:00N 38°42' W 009°10'0 0.0
2017-Jun-18 06:30N 38°42' W 009°10'0 0.0
2017-Jun-18 06:00N 38°42' W 009°10'0 0.5
2017-Jun-18 05:30N 38°42' W 009°10'1 2.1
2017-Jun-18 05:00N 38°41' W 009°11'1 2.6
2017-Jun-18 04:30N 38°42' W 009°10'0 0.0
2017-Jun-18 04:00N 38°42' W 009°10'0 0.0
2017-Jun-18 03:30N 38°42' W 009°10'0 0.0
2017-Jun-18 03:00N 38°42' W 009°10'0 0.0
2017-Jun-18 02:30N 38°42' W 009°10'0 0.0
2017-Jun-18 02:00N 38°42' W 009°10'0 0.0
2017-Jun-18 01:30N 38°42' W 009°10'0 0.0
2017-Jun-18 01:00N 38°42' W 009°10'0 0.0
2017-Jun-18 00:30N 38°42' W 009°10'0 0.0
2017-Jun-18 00:00N 38°42' W 009°10'0 0.0
2017-Jun-17 23:30N 38°42' W 009°10'0 0.0
2017-Jun-17 23:00N 38°42' W 009°10'0 0.0
2017-Jun-17 22:30N 38°42' W 009°10'0 0.0
2017-Jun-17 22:00N 38°42' W 009°10'0 0.0
2017-Jun-17 21:30N 38°42' W 009°10'0 0.0
2017-Jun-17 21:00N 38°42' W 009°10'0 0.0
2017-Jun-17 20:30N 38°42' W 009°10'0 0.0
2017-Jun-17 20:00N 38°42' W 009°10'0 0.0
2017-Jun-17 19:30N 38°42' W 009°10'0 0.0
2017-Jun-17 19:00N 38°42' W 009°10'0 0.0
2017-Jun-17 18:29N 38°42' W 009°10'0 0.0
2017-Jun-17 18:00N 38°42' W 009°10'0 0.0
2017-Jun-17 17:30N 38°42' W 009°10'0 0.0
2017-Jun-17 16:58N 38°42' W 009°10'0 0.0
2017-Jun-17 16:30N 38°42' W 009°10'0 0.0
2017-Jun-17 15:51N 38°42' W 009°10'0 0.0
2017-Jun-17 15:30N 38°42' W 009°10'0 0.0
2017-Jun-17 15:00N 38°42' W 009°10'2 1.5
2017-Jun-17 14:00N 38°41' W 009°08'0 0.5
2017-Jun-17 13:30N 38°41' W 009°08'1 1.6
2017-Jun-17 13:00N 38°42' W 009°09'1 1.0
2017-Jun-17 12:29N 38°42' W 009°10'0 0.0
2017-Jun-17 11:59N 38°42' W 009°10'0 0.0
2017-Jun-17 11:29N 38°42' W 009°10'0 0.0
2017-Jun-17 11:00N 38°42' W 009°10'0 0.0
2017-Jun-17 10:30N 38°42' W 009°10'0 0.0
2017-Jun-17 09:59N 38°42' W 009°10'0 0.0
2017-Jun-17 09:13N 38°42' W 009°10'0 0.0
2017-Jun-17 08:59N 38°42' W 009°10'0 0.0
2017-Jun-17 08:30N 38°42' W 009°10'0 0.0
2017-Jun-17 08:00N 38°42' W 009°10'0 0.0
2017-Jun-17 07:28N 38°42' W 009°10'0 0.0
2017-Jun-17 07:00N 38°42' W 009°10'0 0.0
2017-Jun-17 06:30N 38°42' W 009°10'0 0.0
2017-Jun-17 06:00N 38°42' W 009°10'0 0.0
2017-Jun-17 05:30N 38°42' W 009°10'0 0.0
2017-Jun-17 05:00N 38°42' W 009°10'0 0.0
2017-Jun-17 04:30N 38°42' W 009°10'0 0.0
2017-Jun-17 04:00N 38°42' W 009°10'0 0.0
2017-Jun-17 03:30N 38°42' W 009°10'0 0.0
2017-Jun-17 03:00N 38°42' W 009°10'0 0.0
2017-Jun-17 02:30N 38°42' W 009°10'  
Track history (hours):
 
Tides and Currents Weather Stations Pressure Air Temp Water Temp Dewpoint Dewpoint Depression Visibility Wind Speed Wind Dir Waves Ship Positions

Svitzer Leixoes

Last reported at 2017-Jun-27 02:00 UTC. Time now 2017-Jun-27 02:06 UTC.
Position N 38°42' W 009°07'.

Length 29 m; draft 4.3 m.

Type: Tug. MMSI: 263622000.

Date/timePositionNaut miles runAvg speedWind from/ knotsBaromVisibWave heightAir tempDewpointWater temp
2017-Jun-27 02:00N 38°42' W 009°07'2 4.5
2017-Jun-27 01:29N 38°42' W 009°10'0 0.0
2017-Jun-27 01:00N 38°42' W 009°10'0 0.0
2017-Jun-27 00:29N 38°42' W 009°10'0 0.0
2017-Jun-27 00:00N 38°42' W 009°10'0 0.0
2017-Jun-26 23:28N 38°42' W 009°10'0 0.0
2017-Jun-26 23:00N 38°42' W 009°10'0 0.0
2017-Jun-26 22:27N 38°42' W 009°10'0 0.0
2017-Jun-26 22:00N 38°42' W 009°10'0 0.0
2017-Jun-26 21:30N 38°42' W 009°10'0 0.0
2017-Jun-26 21:00N 38°42' W 009°10'0 0.0
2017-Jun-26 20:29N 38°42' W 009°10'0 0.0
2017-Jun-26 20:00N 38°42' W 009°10'0 0.4
2017-Jun-26 19:30N 38°42' W 009°10'0 0.5
2017-Jun-26 19:00N 38°42' W 009°10'0 0.6
2017-Jun-26 18:30N 38°42' W 009°10'0 0.0
2017-Jun-26 17:58N 38°42' W 009°10'0 0.0
2017-Jun-26 17:29N 38°42' W 009°10'0 0.0
2017-Jun-26 16:58N 38°42' W 009°10'0 0.0
2017-Jun-26 16:30N 38°42' W 009°10'0 0.1
2017-Jun-26 16:00N 38°42' W 009°10'0 0.1
2017-Jun-26 15:30N 38°42' W 009°10'0 0.0
2017-Jun-26 15:00N 38°42' W 009°10'0 0.0
2017-Jun-26 14:30N 38°42' W 009°10'0 0.0
2017-Jun-26 13:29N 38°42' W 009°10'2 3.8
2017-Jun-26 13:00N 38°43' W 009°07'1 2.3
2017-Jun-26 12:29N 38°43' W 009°06'3 5.7
2017-Jun-26 12:00N 38°42' W 009°09'0 0.3
2017-Jun-26 11:30N 38°42' W 009°10'0 0.0
2017-Jun-26 10:59N 38°42' W 009°10'0 0.0
2017-Jun-26 10:30N 38°42' W 009°10'0 0.0
2017-Jun-26 10:00N 38°42' W 009°10'0 0.0
2017-Jun-26 09:27N 38°42' W 009°10'0 0.0
2017-Jun-26 09:00N 38°42' W 009°10'0 0.0
2017-Jun-26 08:29N 38°42' W 009°10'0 0.0
2017-Jun-26 07:58N 38°42' W 009°10'0 0.0
2017-Jun-26 07:30N 38°42' W 009°10'0 0.0
2017-Jun-26 07:00N 38°42' W 009°10'0 0.0
2017-Jun-26 06:30N 38°42' W 009°10'0 0.0
2017-Jun-26 06:00N 38°42' W 009°10'0 0.0
2017-Jun-26 05:28N 38°42' W 009°10'0 0.0
2017-Jun-26 05:00N 38°42' W 009°10'0 0.0
2017-Jun-26 04:30N 38°42' W 009°10'0 0.0
2017-Jun-26 04:00N 38°42' W 009°10'0 0.0
2017-Jun-26 03:30N 38°42' W 009°10'0 0.0
2017-Jun-26 03:00N 38°42' W 009°10'0 0.0
2017-Jun-26 02:30N 38°42' W 009°10'0 0.0
2017-Jun-26 01:59N 38°42' W 009°10'0 0.0
2017-Jun-26 01:30N 38°42' W 009°10'0 0.0
2017-Jun-26 01:00N 38°42' W 009°10'0 0.0
2017-Jun-26 00:30N 38°42' W 009°10'0 0.0
2017-Jun-26 00:00N 38°42' W 009°10'0 0.0
2017-Jun-25 23:30N 38°42' W 009°10'0 0.0
2017-Jun-25 23:00N 38°42' W 009°10'0 0.0
2017-Jun-25 22:30N 38°42' W 009°10'0 0.0
2017-Jun-25 22:00N 38°42' W 009°10'0 0.0
2017-Jun-25 21:30N 38°42' W 009°10'0 0.0
2017-Jun-25 21:00N 38°42' W 009°10'0 0.0
2017-Jun-25 20:30N 38°42' W 009°10'0 0.0
2017-Jun-25 20:00N 38°42' W 009°10'1 1.2
2017-Jun-25 19:30N 38°42' W 009°10'0 0.7
2017-Jun-25 19:00N 38°42' W 009°11'0 0.8
2017-Jun-25 18:30N 38°42' W 009°10'1 1.2
2017-Jun-25 17:58N 38°42' W 009°10'0 0.0
2017-Jun-25 17:30N 38°42' W 009°10'0 0.0
2017-Jun-25 17:00N 38°42' W 009°10'0 0.0
2017-Jun-25 16:30N 38°42' W 009°10'0 0.0
2017-Jun-25 16:00N 38°42' W 009°10'0 0.0
2017-Jun-25 15:30N 38°42' W 009°10'0 0.1
2017-Jun-25 15:00N 38°42' W 009°10'0 0.0
2017-Jun-25 14:00N 38°42' W 009°10'0 0.0
2017-Jun-25 13:30N 38°42' W 009°10'0 0.0
2017-Jun-25 12:58N 38°42' W 009°10'0 0.0
2017-Jun-25 12:29N 38°42' W 009°10'0 0.0
2017-Jun-25 12:00N 38°42' W 009°10'0 0.0
2017-Jun-25 11:30N 38°42' W 009°10'3 5.4
2017-Jun-25 10:59N 38°44' W 009°06'2 3.7
2017-Jun-25 10:30N 38°42' W 009°08'1 2.2
2017-Jun-25 09:57N 38°42' W 009°09'0 0.7
2017-Jun-25 09:30N 38°42' W 009°10'0 0.0
2017-Jun-25 09:00N 38°42' W 009°10'0 0.0
2017-Jun-25 08:30N 38°42' W 009°10'0 0.0
2017-Jun-25 08:00N 38°42' W 009°10'0 0.0
2017-Jun-25 07:30N 38°42' W 009°10'0 0.0
2017-Jun-25 07:00N 38°42' W 009°10'0 0.0
2017-Jun-25 06:30N 38°42' W 009°10'0 0.0
2017-Jun-25 05:59N 38°42' W 009°10'0 0.8
2017-Jun-25 05:30N 38°42' W 009°10'0 0.6
2017-Jun-25 05:00N 38°42' W 009°10'0 0.3
2017-Jun-25 04:27N 38°42' W 009°10'0 0.0
2017-Jun-25 04:00N 38°42' W 009°10'0 0.0
2017-Jun-25 03:30N 38°42' W 009°10'0 0.0
2017-Jun-25 02:54N 38°42' W 009°10'0 0.0
2017-Jun-25 02:30N 38°42' W 009°10'0 0.0
2017-Jun-25 02:00N 38°42' W 009°10'0 0.0
2017-Jun-25 01:30N 38°42' W 009°10'0 0.0
2017-Jun-25 00:59N 38°42' W 009°10'0 0.0
2017-Jun-25 00:30N 38°42' W 009°10'0 0.0
2017-Jun-24 23:59N 38°42' W 009°10'0 0.0
2017-Jun-24 23:28N 38°42' W 009°10'0 0.0
2017-Jun-24 23:00N 38°42' W 009°10'0 0.0
2017-Jun-24 22:30N 38°42' W 009°10'0 0.0
2017-Jun-24 22:00N 38°42' W 009°10'0 0.0
2017-Jun-24 21:30N 38°42' W 009°10'0 0.0
2017-Jun-24 21:00N 38°42' W 009°10'0 0.0
2017-Jun-24 20:30N 38°42' W 009°10'0 0.0
2017-Jun-24 19:59N 38°42' W 009°10'0 0.0
2017-Jun-24 19:29N 38°42' W 009°10'0 0.0
2017-Jun-24 19:00N 38°42' W 009°10'0 0.0
2017-Jun-24 18:30N 38°42' W 009°10'0 0.0
2017-Jun-24 18:00N 38°42' W 009°10'0 0.0
2017-Jun-24 17:25N 38°42' W 009°10'0 0.0
2017-Jun-24 17:00N 38°42' W 009°10'0 0.0
2017-Jun-24 16:29N 38°42' W 009°10'0 0.0
2017-Jun-24 16:00N 38°42' W 009°10'0 0.0
2017-Jun-24 15:30N 38°42' W 009°10'0 0.5
2017-Jun-24 14:59N 38°42' W 009°10'1 0.6
2017-Jun-24 14:00N 38°42' W 009°10'1 1.7
2017-Jun-24 13:30N 38°42' W 009°10'0 0.0
2017-Jun-24 12:57N 38°42' W 009°10'0 0.0
2017-Jun-24 12:30N 38°42' W 009°10'0 0.0
2017-Jun-24 12:00N 38°42' W 009°10'0 0.0
2017-Jun-24 11:30N 38°42' W 009°10'0 0.0
2017-Jun-24 11:00N 38°42' W 009°10'0 0.0
2017-Jun-24 10:28N 38°42' W 009°10'0 1.0
2017-Jun-24 10:00N 38°42' W 009°10'0 0.9
2017-Jun-24 09:29N 38°42' W 009°10'0 0.0
2017-Jun-24 08:57N 38°42' W 009°10'0 0.0
2017-Jun-24 08:24N 38°42' W 009°10'0 0.0
2017-Jun-24 07:59N 38°42' W 009°10'0 0.0
2017-Jun-24 07:30N 38°42' W 009°10'0 0.0
2017-Jun-24 06:59N 38°42' W 009°10'0 0.0
2017-Jun-24 06:30N 38°42' W 009°10'0 0.0
2017-Jun-24 05:56N 38°42' W 009°10'0 0.0
2017-Jun-24 05:30N 38°42' W 009°10'0 0.0
2017-Jun-24 05:00N 38°42' W 009°10'0 0.0
2017-Jun-24 04:29N 38°42' W 009°10'0 0.0
2017-Jun-24 04:00N 38°42' W 009°10'0 0.0
2017-Jun-24 03:30N 38°42' W 009°10'0 0.0
2017-Jun-24 02:59N 38°42' W 009°10'0 0.0
2017-Jun-24 02:30N 38°42' W 009°10'0 0.0
2017-Jun-24 01:59N 38°42' W 009°10'0 0.0
2017-Jun-24 01:29N 38°42' W 009°10'0 0.0
2017-Jun-24 00:57N 38°42' W 009°10'0 0.0
2017-Jun-24 00:30N 38°42' W 009°10'0 0.0
2017-Jun-24 00:00N 38°42' W 009°10'0 0.0
2017-Jun-23 23:30N 38°42' W 009°10'0 0.0
2017-Jun-23 23:00N 38°42' W 009°10'0 0.0
2017-Jun-23 22:30N 38°42' W 009°10'0 0.0
2017-Jun-23 21:59N 38°42' W 009°10'0 0.0
2017-Jun-23 21:30N 38°42' W 009°10'0 0.0
2017-Jun-23 21:00N 38°42' W 009°10'0 0.0
2017-Jun-23 20:29N 38°42' W 009°10'0 0.0
2017-Jun-23 20:00N 38°42' W 009°10'0 0.0
2017-Jun-23 19:30N 38°42' W 009°10'0 0.0
2017-Jun-23 19:00N 38°42' W 009°10'1 2.8
2017-Jun-23 18:30N 38°41' W 009°11'1 1.5
2017-Jun-23 18:00N 38°42' W 009°10'0 0.1
2017-Jun-23 17:30N 38°42' W 009°10'1 1.2
2017-Jun-23 17:00N 38°42' W 009°10'2 3.8
2017-Jun-23 16:30N 38°40' W 009°09'0 0.1
2017-Jun-23 16:00N 38°40' W 009°09'0 0.1
2017-Jun-23 15:30N 38°40' W 009°09'0 0.1
2017-Jun-23 15:00N 38°40' W 009°09'1 0.7
2017-Jun-23 14:00N 38°41' W 009°08'0 0.2
2017-Jun-23 13:30N 38°41' W 009°08'2 3.3
2017-Jun-23 13:00N 38°42' W 009°09'0 0.5
2017-Jun-23 12:30N 38°42' W 009°10'0 0.0
2017-Jun-23 12:00N 38°42' W 009°10'0 0.0
2017-Jun-23 11:30N 38°42' W 009°10'0 0.0
2017-Jun-23 10:59N 38°42' W 009°10'0 0.0
2017-Jun-23 10:29N 38°42' W 009°10'0 0.0
2017-Jun-23 10:00N 38°42' W 009°10'0 0.0
2017-Jun-23 09:30N 38°42' W 009°10'0 0.4
2017-Jun-23 09:00N 38°42' W 009°10'0 0.4
2017-Jun-23 08:30N 38°42' W 009°10'0 0.0
2017-Jun-23 07:59N 38°42' W 009°10'0 0.0
2017-Jun-23 07:27N 38°42' W 009°10'0 0.0
2017-Jun-23 07:00N 38°42' W 009°10'0 0.0
2017-Jun-23 06:29N 38°42' W 009°10'0 0.0
2017-Jun-23 06:00N 38°42' W 009°10'1 1.0
2017-Jun-23 05:27N 38°42' W 009°10'1 2.9
2017-Jun-23 05:00N 38°41' W 009°12'2 3.8
2017-Jun-23 04:30N 38°42' W 009°10'0 0.0
2017-Jun-23 04:00N 38°42' W 009°10'0 0.0
2017-Jun-23 03:30N 38°42' W 009°10'0 0.0
2017-Jun-23 02:59N 38°42' W 009°10'0 0.0
2017-Jun-23 02:29N 38°42' W 009°10'0 0.0
2017-Jun-23 01:58N 38°42' W 009°10'0 0.0
2017-Jun-23 01:30N 38°42' W 009°10'0 0.0
2017-Jun-23 01:00N 38°42' W 009°10'0 0.0
2017-Jun-23 00:30N 38°42' W 009°10'0 0.0
2017-Jun-23 00:00N 38°42' W 009°10'0 0.0
2017-Jun-22 23:29N 38°42' W 009°10'0 0.0
2017-Jun-22 22:59N 38°42' W 009°10'0 0.0
2017-Jun-22 22:29N 38°42' W 009°10'0 0.0
2017-Jun-22 22:00N 38°42' W 009°10'0 0.0
2017-Jun-22 21:26N 38°42' W 009°10'0 0.0
2017-Jun-22 21:00N 38°42' W 009°10'0 0.0
2017-Jun-22 20:30N 38°42' W 009°10'0 0.0
2017-Jun-22 20:00N 38°42' W 009°10'0 0.0
2017-Jun-22 19:30N 38°42' W 009°10'0 0.0
2017-Jun-22 19:00N 38°42' W 009°10'0 0.0
2017-Jun-22 18:29N 38°42' W 009°10'0 0.0
2017-Jun-22 18:00N 38°42' W 009°10'0 0.0
2017-Jun-22 17:29N 38°42' W 009°10'0 0.0
2017-Jun-22 17:00N 38°42' W 009°10'0 0.0
2017-Jun-22 16:30N 38°42' W 009°10'0 0.0
2017-Jun-22 15:59N 38°42' W 009°10'0 0.0
2017-Jun-22 15:26N 38°42' W 009°10'0 0.0
2017-Jun-22 14:59N 38°42' W 009°10'0 0.4
2017-Jun-22 14:00N 38°42' W 009°10'0 0.7
2017-Jun-22 13:29N 38°42' W 009°10'0 0.0
2017-Jun-22 13:00N 38°42' W 009°10'0 0.0
2017-Jun-22 12:30N 38°42' W 009°10'0 0.0
2017-Jun-22 11:58N 38°42' W 009°10'0 0.0
2017-Jun-22 11:30N 38°42' W 009°10'0 0.0
2017-Jun-22 10:59N 38°42' W 009°10'0 0.0
2017-Jun-22 10:30N 38°42' W 009°10'0 0.0
2017-Jun-22 10:00N 38°42' W 009°10'3 5.5
2017-Jun-22 09:30N 38°41' W 009°07'2 4.5
2017-Jun-22 09:00N 38°41' W 009°04'4 7.6
2017-Jun-22 08:30N 38°41' W 009°08'1 2.6
2017-Jun-22 08:00N 38°41' W 009°10'1 1.5
2017-Jun-22 07:30N 38°42' W 009°09'1 1.1
2017-Jun-22 07:00N 38°42' W 009°10'3 5.1
2017-Jun-22 06:27N 38°41' W 009°13'1 2.2
2017-Jun-22 06:01N 38°41' W 009°14'4 7.8
2017-Jun-22 05:30N 38°42' W 009°09'0 0.4
2017-Jun-22 05:00N 38°42' W 009°10'0 0.0
2017-Jun-22 04:27N 38°42' W 009°10'0 0.0
2017-Jun-22 03:58N 38°42' W 009°10'0 0.0
2017-Jun-22 03:30N 38°42' W 009°10'0 0.0
2017-Jun-22 02:58N 38°42' W 009°10'0 0.0
2017-Jun-22 02:30N 38°42' W 009°10'0 0.0
2017-Jun-22 01:58N 38°42' W 009°10'0 0.0
2017-Jun-22 01:30N 38°42' W 009°10'0 0.0
2017-Jun-22 01:00N 38°42' W 009°10'0 0.0
2017-Jun-22 00:29N 38°42' W 009°10'2 3.3
2017-Jun-22 00:00N 38°41' W 009°11'0 0.1
2017-Jun-21 23:30N 38°41' W 009°11'0 0.7
2017-Jun-21 23:00N 38°41' W 009°11'1 2.7
2017-Jun-21 22:30N 38°42' W 009°10'0 0.0
2017-Jun-21 22:00N 38°42' W 009°10'0 0.0
2017-Jun-21 21:27N 38°42' W 009°10'0 0.0
2017-Jun-21 21:00N 38°42' W 009°10'0 0.0
2017-Jun-21 20:29N 38°42' W 009°10'0 0.0
2017-Jun-21 20:00N 38°42' W 009°10'0 0.0
2017-Jun-21 19:30N 38°42' W 009°10'1 1.3
2017-Jun-21 19:00N 38°42' W 009°09'2 3.7
2017-Jun-21 18:21N 38°43' W 009°06'2 4.8
2017-Jun-21 18:00N 38°42' W 009°08'1 2.6
2017-Jun-21 17:29N 38°42' W 009°10'0 0.0
2017-Jun-21 16:58N 38°42' W 009°10'0 0.0
2017-Jun-21 16:28N 38°42' W 009°10'0 0.0
2017-Jun-21 16:00N 38°42' W 009°10'0 0.0
2017-Jun-21 15:29N 38°42' W 009°10'0 0.0
2017-Jun-21 14:53N 38°42' W 009°10'1 1.0
2017-Jun-21 14:00N 38°42' W 009°10'1 1.7
2017-Jun-21 13:30N 38°42' W 009°10'0 0.0
2017-Jun-21 12:59N 38°42' W 009°10'0 0.0
2017-Jun-21 12:29N 38°42' W 009°10'0 0.0
2017-Jun-21 12:00N 38°42' W 009°10'0 0.0
2017-Jun-21 11:30N 38°42' W 009°10'0 0.0
2017-Jun-21 10:58N 38°42' W 009°10'0 0.0
2017-Jun-21 10:29N 38°42' W 009°10'0 0.0
2017-Jun-21 10:00N 38°42' W 009°10'0 0.0
2017-Jun-21 09:30N 38°42' W 009°10'0 0.0
2017-Jun-21 08:53N 38°42' W 009°10'0 0.4
2017-Jun-21 08:29N 38°42' W 009°09'4 7.5
2017-Jun-21 08:00N 38°41' W 009°14'2 4.4
2017-Jun-21 07:30N 38°42' W 009°11'1 2.3
2017-Jun-21 06:55N 38°42' W 009°10'0 0.0
2017-Jun-21 06:30N 38°42' W 009°10'0 0.0
2017-Jun-21 05:59N 38°42' W 009°10'0 0.0
2017-Jun-21 05:30N 38°42' W 009°10'0 0.0
2017-Jun-21 04:59N 38°42' W 009°10'0 0.0
2017-Jun-21 04:30N 38°42' W 009°10'0 0.9
2017-Jun-21 03:59N 38°42' W 009°10'0 0.8
2017-Jun-21 03:30N 38°42' W 009°10'0 0.7
2017-Jun-21 02:58N 38°42' W 009°10'0 0.0
2017-Jun-21 02:29N 38°42' W 009°10'0 0.0
2017-Jun-21 02:00N 38°42' W 009°10'0 0.0
2017-Jun-21 01:29N 38°42' W 009°10'0 0.0
2017-Jun-21 01:00N 38°42' W 009°10'0 0.0
2017-Jun-21 00:30N 38°42' W 009°10'0 0.0
2017-Jun-21 00:00N 38°42' W 009°10'0 0.0
2017-Jun-20 23:28N 38°42' W 009°10'2 5.3
2017-Jun-20 23:00N 38°43' W 009°07'2 3.8
2017-Jun-20 22:30N 38°42' W 009°09'1 1.2
2017-Jun-20 21:59N 38°42' W 009°10'0 0.0
2017-Jun-20 21:27N 38°42' W 009°10'0 0.0
2017-Jun-20 20:59N 38°42' W 009°10'0 0.0
2017-Jun-20 20:29N 38°42' W 009°10'0 0.0
2017-Jun-20 19:59N 38°42' W 009°10'0 0.0
2017-Jun-20 19:30N 38°42' W 009°10'0 0.0
2017-Jun-20 19:00N 38°42' W 009°10'0 0.0
2017-Jun-20 18:30N 38°42' W 009°10'2 3.1
2017-Jun-20 18:00N 38°42' W 009°08'2 2.8
2017-Jun-20 17:27N 38°42' W 009°10'0 0.0
2017-Jun-20 17:00N 38°42' W 009°10'0 0.0
2017-Jun-20 16:28N 38°42' W 009°10'0 0.0
2017-Jun-20 16:00N 38°42' W 009°10'0 0.0
2017-Jun-20 15:30N 38°42' W 009°10'0 0.0
2017-Jun-20 14:59N 38°42' W 009°10'0 0.0
2017-Jun-20 14:00N 38°42' W 009°10'0 0.0
2017-Jun-20 13:30N 38°42' W 009°10'0 0.0
2017-Jun-20 13:00N 38°42' W 009°10'0 0.0
2017-Jun-20 12:27N 38°42' W 009°10'0 0.0
2017-Jun-20 12:00N 38°42' W 009°10'2 4.9
2017-Jun-20 11:30N 38°41' W 009°12'1 2.7
2017-Jun-20 11:00N 38°41' W 009°14'2 4.6
2017-Jun-20 10:29N 38°41' W 009°11'2 4.1
2017-Jun-20 10:00N 38°40' W 009°09'0 0.1
2017-Jun-20 09:30N 38°40' W 009°09'1 1.4
2017-Jun-20 09:00N 38°41' W 009°08'2 3.6
2017-Jun-20 08:30N 38°42' W 009°10'0 0.0
2017-Jun-20 08:00N 38°42' W 009°10'0 0.0
2017-Jun-20 07:30N 38°42' W 009°10'0 0.0
2017-Jun-20 07:00N 38°42' W 009°10'0 0.5
2017-Jun-20 06:30N 38°42' W 009°10'0 1.0
2017-Jun-20 06:00N 38°42' W 009°09'0 0.9
2017-Jun-20 05:30N 38°42' W 009°10'0 0.0
2017-Jun-20 05:00N 38°42' W 009°10'0 0.0
2017-Jun-20 04:30N 38°42' W 009°10'0 0.0
2017-Jun-20 04:00N 38°42' W 009°10'0 0.0
2017-Jun-20 03:30N 38°42' W 009°10'0 0.0
2017-Jun-20 03:00N 38°42' W 009°10'0 0.0
2017-Jun-20 02:30N 38°42' W 009°10'0 0.0
2017-Jun-20 02:00N 38°42' W 009°10'0 0.0
2017-Jun-20 01:30N 38°42' W 009°10'0 0.0
2017-Jun-20 01:00N 38°42' W 009°10'0 0.0
2017-Jun-20 00:30N 38°42' W 009°10'0 0.0
2017-Jun-20 00:00N 38°42' W 009°10'0 0.0
2017-Jun-19 23:30N 38°42' W 009°10'0 0.0
2017-Jun-19 23:00N 38°42' W 009°10'0 0.0
2017-Jun-19 22:30N 38°42' W 009°10'0 0.0
2017-Jun-19 22:00N 38°42' W 009°10'0 0.0
2017-Jun-19 21:30N 38°42' W 009°10'0 0.9
2017-Jun-19 21:00N 38°42' W 009°10'0 0.9
2017-Jun-19 20:30N 38°42' W 009°10'0 0.0
2017-Jun-19 20:00N 38°42' W 009°10'0 0.0
2017-Jun-19 19:30N 38°42' W 009°10'0 0.0
2017-Jun-19 19:00N 38°42' W 009°10'0 0.0
2017-Jun-19 18:30N 38°42' W 009°10'0 0.0
2017-Jun-19 17:59N 38°42' W 009°10'0 0.9
2017-Jun-19 17:30N 38°42' W 009°10'1 1.5
2017-Jun-19 17:00N 38°42' W 009°11'1 2.3
2017-Jun-19 16:30N 38°42' W 009°10'0 0.0
2017-Jun-19 16:00N 38°42' W 009°10'0 0.0
2017-Jun-19 15:29N 38°42' W 009°10'0 0.0
2017-Jun-19 15:00N 38°42' W 009°10'0 0.0
2017-Jun-19 13:58N 38°42' W 009°10'0 0.0
2017-Jun-19 13:29N 38°42' W 009°10'0 0.0
2017-Jun-19 13:00N 38°42' W 009°10'0 0.0
2017-Jun-19 12:28N 38°42' W 009°10'0 0.0
2017-Jun-19 12:00N 38°42' W 009°10'0 0.0
2017-Jun-19 11:30N 38°42' W 009°10'3 5.6
2017-Jun-19 10:54N 38°44' W 009°06'0 0.3
2017-Jun-19 10:29N 38°44' W 009°06'1 3.0
2017-Jun-19 10:00N 38°43' W 009°07'2 4.2
2017-Jun-19 09:30N 38°42' W 009°10'0 0.0
2017-Jun-19 09:00N 38°42' W 009°10'0 0.0
2017-Jun-19 08:30N 38°42' W 009°10'0 0.0
2017-Jun-19 08:00N 38°42' W 009°10'0 0.0
2017-Jun-19 07:30N 38°42' W 009°10'0 0.0
2017-Jun-19 07:00N 38°42' W 009°10'0 0.0
2017-Jun-19 06:30N 38°42' W 009°10'0 0.8
2017-Jun-19 06:00N 38°42' W 009°10'1 1.0
2017-Jun-19 05:29N 38°41' W 009°10'1 1.2
2017-Jun-19 05:00N 38°42' W 009°11'1 1.8
2017-Jun-19 04:30N 38°42' W 009°10'0 0.0
2017-Jun-19 04:00N 38°42' W 009°10'0 0.0
2017-Jun-19 03:30N 38°42' W 009°10'0 0.0
2017-Jun-19 03:00N 38°42' W 009°10'0 0.0
2017-Jun-19 02:30N 38°42' W 009°10'0 0.0
2017-Jun-19 02:00N 38°42' W 009°10'0 0.0
2017-Jun-19 01:30N 38°42' W 009°10'0 0.0
2017-Jun-19 01:00N 38°42' W 009°10'0 0.0
2017-Jun-19 00:30N 38°42' W 009°10'0 0.0
2017-Jun-19 00:00N 38°42' W 009°10'0 0.0
2017-Jun-18 23:30N 38°42' W 009°10'0 0.0
2017-Jun-18 23:00N 38°42' W 009°10'0 0.0
2017-Jun-18 22:30N 38°42' W 009°10'0 0.0
2017-Jun-18 22:00N 38°42' W 009°10'0 0.0
2017-Jun-18 21:30N 38°42' W 009°10'0 0.0
2017-Jun-18 21:00N 38°42' W 009°10'0 0.0
2017-Jun-18 20:30N 38°42' W 009°10'0 0.0
2017-Jun-18 20:00N 38°42' W 009°10'0 0.0
2017-Jun-18 19:29N 38°42' W 009°10'0 0.0
2017-Jun-18 19:00N 38°42' W 009°10'0 0.0
2017-Jun-18 18:30N 38°42' W 009°10'0 0.0
2017-Jun-18 18:00N 38°42' W 009°10'0 0.0
2017-Jun-18 17:30N 38°42' W 009°10'0 0.0
2017-Jun-18 17:00N 38°42' W 009°10'1 1.1
2017-Jun-18 16:31N 38°42' W 009°10'0 0.4
2017-Jun-18 16:00N 38°42' W 009°10'1 1.0
2017-Jun-18 15:30N 38°42' W 009°10'0 0.0
2017-Jun-18 15:00N 38°42' W 009°10'0 0.0
2017-Jun-18 14:00N 38°42' W 009°10'0 0.0
2017-Jun-18 13:30N 38°42' W 009°10'0 0.0
2017-Jun-18 13:00N 38°42' W 009°10'0 0.0
2017-Jun-18 12:30N 38°42' W 009°10'0 0.0
2017-Jun-18 12:00N 38°42' W 009°10'0 0.0
2017-Jun-18 11:30N 38°42' W 009°10'0 0.0
2017-Jun-18 11:00N 38°42' W 009°10'0 0.0
2017-Jun-18 10:30N 38°42' W 009°10'0 0.0
2017-Jun-18 10:00N 38°42' W 009°10'0 0.0
2017-Jun-18 09:30N 38°42' W 009°10'0 0.0
2017-Jun-18 09:00N 38°42' W 009°10'1 1.8
2017-Jun-18 08:30N 38°42' W 009°09'1 2.6
2017-Jun-18 08:00N 38°40' W 009°09'1 1.8
2017-Jun-18 07:31N 38°41' W 009°08'2 3.1
2017-Jun-18 07:00N 38°42' W 009°10'0 0.0
2017-Jun-18 06:30N 38°42' W 009°10'0 0.0
2017-Jun-18 06:00N 38°42' W 009°10'0 0.5
2017-Jun-18 05:30N 38°42' W 009°10'1 2.1
2017-Jun-18 05:00N 38°41' W 009°11'1 2.6
2017-Jun-18 04:30N 38°42' W 009°10'0 0.0
2017-Jun-18 04:00N 38°42' W 009°10'0 0.0
2017-Jun-18 03:30N 38°42' W 009°10'0 0.0
2017-Jun-18 03:00N 38°42' W 009°10'0 0.0
2017-Jun-18 02:30N 38°42' W 009°10'0 0.0
2017-Jun-18 02:00N 38°42' W 009°10'0 0.0
2017-Jun-18 01:30N 38°42' W 009°10'0 0.0
2017-Jun-18 01:00N 38°42' W 009°10'0 0.0
2017-Jun-18 00:30N 38°42' W 009°10'0 0.0
2017-Jun-18 00:00N 38°42' W 009°10'0 0.0
2017-Jun-17 23:30N 38°42' W 009°10'0 0.0
2017-Jun-17 23:00N 38°42' W 009°10'0 0.0
2017-Jun-17 22:30N 38°42' W 009°10'0 0.0
2017-Jun-17 22:00N 38°42' W 009°10'0 0.0
2017-Jun-17 21:30N 38°42' W 009°10'0 0.0
2017-Jun-17 21:00N 38°42' W 009°10'0 0.0
2017-Jun-17 20:30N 38°42' W 009°10'0 0.0
2017-Jun-17 20:00N 38°42' W 009°10'0 0.0
2017-Jun-17 19:30N 38°42' W 009°10'0 0.0
2017-Jun-17 19:00N 38°42' W 009°10'0 0.0
2017-Jun-17 18:29N 38°42' W 009°10'0 0.0
2017-Jun-17 18:00N 38°42' W 009°10'0 0.0
2017-Jun-17 17:30N 38°42' W 009°10'0 0.0
2017-Jun-17 16:58N 38°42' W 009°10'0 0.0
2017-Jun-17 16:30N 38°42' W 009°10'0 0.0
2017-Jun-17 15:51N 38°42' W 009°10'0 0.0
2017-Jun-17 15:30N 38°42' W 009°10'0 0.0
2017-Jun-17 15:00N 38°42' W 009°10'2 1.5
2017-Jun-17 14:00N 38°41' W 009°08'0 0.5
2017-Jun-17 13:30N 38°41' W 009°08'1 1.6
2017-Jun-17 13:00N 38°42' W 009°09'1 1.0
2017-Jun-17 12:29N 38°42' W 009°10'0 0.0
2017-Jun-17 11:59N 38°42' W 009°10'0 0.0
2017-Jun-17 11:29N 38°42' W 009°10'0 0.0
2017-Jun-17 11:00N 38°42' W 009°10'0 0.0
2017-Jun-17 10:30N 38°42' W 009°10'0 0.0
2017-Jun-17 09:59N 38°42' W 009°10'0 0.0
2017-Jun-17 09:13N 38°42' W 009°10'0 0.0
2017-Jun-17 08:59N 38°42' W 009°10'0 0.0
2017-Jun-17 08:30N 38°42' W 009°10'0 0.0
2017-Jun-17 08:00N 38°42' W 009°10'0 0.0
2017-Jun-17 07:28N 38°42' W 009°10'0 0.0
2017-Jun-17 07:00N 38°42' W 009°10'0 0.0
2017-Jun-17 06:30N 38°42' W 009°10'0 0.0
2017-Jun-17 06:00N 38°42' W 009°10'0 0.0
2017-Jun-17 05:30N 38°42' W 009°10'0 0.0
2017-Jun-17 05:00N 38°42' W 009°10'0 0.0
2017-Jun-17 04:30N 38°42' W 009°10'0 0.0
2017-Jun-17 04:00N 38°42' W 009°10'0 0.0
2017-Jun-17 03:30N 38°42' W 009°10'0 0.0
2017-Jun-17 03:00N 38°42' W 009°10'0 0.0
2017-Jun-17 02:30N 38°42' W 009°10'  

Dump ship's entire track history